x

8447387 - Borden Flats Light At Fall River, Ma (bltm3) Weather Station

1:18 - Thu 2nd Oct 2014 All times are EDT. -4 hours from GMT.

  • Wind
    18mph, 22mph gusts
  • Ar Temp 58°f
  • Sea Pressure 1019.7mb
  • 8447387 - Borden Flats Light At Fall River, Ma
  • 8447387 - Borden Flats Light At Fall River, Ma

More Historic Weather Station data

Upgrade to MSW Pro to gain access to the past 30 days of data for over 8000 Wavebouys and Weather Stations around the globe.

Join Pro

Comparision Forecast

View Surf forecast
   
Qui 10/02 1:18 18 22 mph 1019.7mb 58f
1:12 20 25 mph 1019.7mb 58f
1:06 20 25 mph 1019.7mb 58f
1:00 17 28 mph 1019.9mb 58f
12:54 15 22 mph 1019.9mb 58f
12:48 17 25 mph 1019.9mb 58f
12:42 18 23 mph 1019.8mb 58f
12:36 18 25 mph 1019.8mb 58f
12:30 14 18 mph 1019.8mb 59f
12:24 18 25 mph 1019.6mb 58f
12:18 20 26 mph 1019.5mb 58f
12:12 18 26 mph 1019.6mb 58f
12:06 22 26 mph 1019.5mb 58f
12:00 22 29 mph 1019.5mb 58f
11:54 18 26 mph 1019.5mb 59f
11:48 16 29 mph 1019.5mb 59f
11:42 21 29 mph 1019.5mb 58f
11:36 17 22 mph 1019.4mb 58f
11:30 20 25 mph 1019.4mb 58f
11:24 18 28 mph 1019.5mb 59f
11:18 16 22 mph 1019.6mb 58f
11:12 16 21 mph 1019.6mb 59f
11:06 17 23 mph 1019.5mb 59f
11:00 17 22 mph 1019.6mb 59f
10:54 15 20 mph 1019.6mb 59f
10:48 17 22 mph 1019.6mb 59f
10:42 17 24 mph 1019.6mb 59f
10:36 16 20 mph 1019.6mb 59f
10:30 17 25 mph 1019.5mb 59f
10:24 17 23 mph 1019.5mb 59f
10:18 14 20 mph 1019.5mb 59f
10:12 20 25 mph 1019.3mb 59f
10:06 20 24 mph 1019.2mb 59f
10:00 16 22 mph 1019.2mb 59f
9:54 16 22 mph 1019.1mb 59f
9:48 17 23 mph 1019.2mb 59f
9:42 14 18 mph 1019.3mb 59f
9:36 17 23 mph 1019.3mb 60f
9:30 20 23 mph 1019.3mb 59f
9:24 18 24 mph 1019.3mb 59f
9:18 16 22 mph 1019.4mb 59f
9:12 17 21 mph 1019.4mb 59f
9:06 16 21 mph 1019.4mb 59f
9:00 18 25 mph 1019.3mb 59f
8:54 16 20 mph 1019.3mb 59f
8:48 16 22 mph 1019.2mb 59f
8:42 16 22 mph 1019mb 59f
8:36 16 20 mph 1018.9mb 59f
8:30 16 21 mph 1018.9mb 59f
8:24 17 22 mph 1018.8mb 59f
8:18 16 21 mph 1018.8mb 59f
8:12 17 22 mph 1018.8mb 59f
8:06 16 20 mph 1018.8mb 59f
8:00 16 23 mph 1018.8mb 59f
7:54 16 21 mph 1018.8mb 59f
7:48 15 22 mph 1018.7mb 59f
7:42 15 22 mph 1018.7mb 59f
7:36 16 22 mph 1018.7mb 59f
7:30 15 20 mph 1018.7mb 59f
7:24 15 21 mph 1018.6mb 59f
7:18 15 20 mph 1018.6mb 59f
7:12 17 23 mph 1018.6mb 59f
7:06 16 21 mph 1018.5mb 59f
7:00 16 22 mph 1018.5mb 59f
6:54 17 24 mph 1018.4mb 59f
6:48 16 22 mph 1018.4mb 59f
6:42 16 24 mph 1018.4mb 59f
6:36 15 22 mph 1018.4mb 59f
6:30 15 22 mph 1018.4mb 59f
6:24 16 23 mph 1018.3mb 59f
6:18 14 20 mph 1018.3mb 59f
6:12 13 18 mph 1018.3mb 59f
6:06 17 24 mph 1018.2mb 59f
6:00 16 22 mph 1018.2mb 59f
5:54 14 18 mph 1018.2mb 60f
5:48 16 23 mph 1018.1mb 60f
5:42 14 16 mph 1018.2mb 60f
5:36 14 22 mph 1018.1mb 60f
5:30 15 20 mph 1018.1mb 60f
5:24 16 20 mph 1018mb 60f
5:18 16 21 mph 1017.9mb 60f
5:12 15 20 mph 1017.9mb 60f
5:06 15 20 mph 1017.9mb 60f
5:00 16 24 mph 1017.8mb 60f
4:54 16 21 mph 1017.8mb 60f
4:48 16 23 mph 1017.8mb 60f
4:42 14 18 mph 1017.7mb 60f
4:36 16 21 mph 1017.6mb 60f
4:30 15 20 mph 1017.6mb 60f
4:24 14 18 mph 1017.6mb 60f
4:18 16 22 mph 1017.5mb 60f
4:12 15 20 mph 1017.5mb 60f
4:06 15 21 mph 1017.4mb 60f
4:00 17 22 mph 1017.4mb 60f
3:54 14 18 mph 1017.4mb 60f
3:48 14 22 mph 1017.4mb 60f
3:42 15 22 mph 1017.3mb 60f
3:36 14 20 mph 1017.4mb 60f
3:30 14 20 mph 1017.3mb 60f
3:24 15 21 mph 1017.3mb 60f
3:18 17 21 mph 1017.3mb 60f
3:12 16 22 mph 1017.3mb 60f
3:06 14 17 mph 1017.3mb 60f
3:00 15 21 mph 1017.3mb 60f
2:54 15 20 mph 1017.3mb 60f
2:48 14 21 mph 1017.3mb 60f
2:42 13 20 mph 1017.3mb 60f
2:36 15 22 mph 1017.2mb 60f
2:30 15 21 mph 1017.3mb 60f
2:24 15 22 mph 1017.3mb 60f
2:18 15 21 mph 1017.3mb 60f
2:12 14 20 mph 1017.4mb 60f
2:06 15 22 mph 1017.3mb 60f
2:00 15 22 mph 1017.4mb 60f
1:54 13 20 mph 1017.4mb 60f
1:48 13 17 mph 1017.5mb 60f
1:42 15 22 mph 1017.4mb 60f
1:36 15 20 mph 1017.4mb 60f
1:30 16 23 mph 1017.4mb 60f
1:24 13 16 mph 1017.4mb 60f
1:18 15 21 mph 1017.3mb 60f
1:12 14 17 mph 1017.3mb 60f
1:06 13 18 mph 1017.4mb 60f
1:00 13 17 mph 1017.4mb 60f
12:54 14 16 mph 1017.4mb 60f
12:48 13 17 mph 1017.4mb 60f
12:42 14 17 mph 1017.4mb 60f
12:36 15 21 mph 1017.4mb 60f
12:30 13 17 mph 1017.4mb 60f
12:24 13 18 mph 1017.4mb 60f
12:18 11 17 mph 1017.4mb 60f
12:12 10 16 mph 1017.4mb 60f
12:06 13 16 mph 1017.4mb 60f
12:00 11 15 mph 1017.4mb 60f
Qua 10/01 11:54 13 17 mph 1017.4mb 60f
11:48 14 18 mph 1017.4mb 60f
11:42 13 17 mph 1017.4mb 60f
11:36 14 20 mph 1017.4mb 60f
11:30  -  mph 1017.4mb -
11:24  -  mph 1017.4mb -
11:12 16 21 mph - 60f
11:06 13 16 mph 1017.6mb 60f
11:00  -  mph 1017.6mb -
10:18  -  mph - 61f
10:12  -  mph - 61f
10:06  -  mph - 61f
10:00  -  mph - 61f
9:48  -  mph - 61f
9:42  -  mph - 61f
9:36  -  mph - 61f
9:30 15 21 mph 1017.4mb 61f
9:24 16 20 mph 1017.4mb 61f
9:18 14 18 mph 1017.5mb 61f
9:12 15 18 mph 1017.5mb 61f
9:06 11 17 mph 1017.5mb 61f
9:00 13 16 mph 1017.4mb 61f
8:54 11 14 mph 1017.4mb 61f
8:48 13 17 mph 1017.2mb 61f
8:42 13 17 mph 1017.2mb 61f
8:36 14 18 mph 1017.2mb 61f
8:30 13 16 mph 1017.1mb 61f
8:24 13 16 mph 1017mb 61f
8:18 13 16 mph 1017.1mb 61f
8:12 14 20 mph 1017.1mb 61f
8:06 10 17 mph 1017mb 60f
8:00 11 15 mph 1016.8mb 61f
7:54 13 16 mph 1016.6mb 60f
7:48 14 20 mph 1016.3mb 60f
7:42 14 18 mph 1016.4mb 60f
7:36 13 18 mph 1016.5mb 60f
7:30 14 20 mph 1016.4mb 60f
7:24 13 16 mph 1016.3mb 60f
7:18 15 21 mph 1016.1mb 60f
7:12 15 20 mph 1016mb 60f
7:06 17 23 mph 1015.8mb 60f
7:00 15 18 mph 1016mb 60f
6:54 15 21 mph 1016.1mb 60f
6:48 16 21 mph 1016.3mb 61f
6:42 13 17 mph 1016.6mb 61f
6:36 13 16 mph 1016.8mb 61f
6:30 11 14 mph 1016.8mb 61f
6:24 11 15 mph 1016.8mb 61f
6:18 13 15 mph 1016.6mb 61f
6:12 13 15 mph 1016.5mb 61f
6:06 13 18 mph 1016.5mb 61f
6:00 11 15 mph 1016.5mb 61f
5:54 13 15 mph 1016.5mb 61f
5:48 13 15 mph 1016.6mb 61f
5:42 13 17 mph 1016.6mb 61f
5:36 15 17 mph 1016.5mb 61f
5:30 16 22 mph 1016.5mb 61f
5:24 14 17 mph 1016.4mb 61f
5:18 17 21 mph 1016.3mb 61f
5:12 15 20 mph 1016.4mb 61f
5:06 17 22 mph 1016.3mb 61f
5:00 16 20 mph 1016.4mb 61f
4:54 15 20 mph 1016.3mb 61f
4:48 16 22 mph 1016.1mb 61f
4:42 15 17 mph 1016.1mb 61f
4:36 15 20 mph 1015.9mb 61f
4:30 16 22 mph 1015.7mb 61f
4:24 15 21 mph 1015.6mb 61f
4:18 15 18 mph 1015.7mb 61f
4:12 14 16 mph 1015.9mb 61f
4:06 15 20 mph 1015.9mb 61f
4:00 15 18 mph 1016.1mb 61f
3:54 14 18 mph 1016mb 61f
3:48 17 22 mph 1015.7mb 61f
3:42 17 22 mph 1015.7mb 61f
3:36 17 22 mph 1015.9mb 61f
3:30 16 20 mph 1016.1mb 61f
3:24 15 17 mph 1016.2mb 61f
3:18 15 18 mph 1016.2mb 61f
3:12 13 15 mph 1016.1mb 61f
3:06 14 17 mph 1016.2mb 61f
3:00 14 20 mph 1016.2mb 61f
2:54 15 21 mph 1016.1mb 61f
2:48 15 18 mph 1016.1mb 61f
2:42 17 21 mph 1015.9mb 61f
2:36 15 20 mph 1016mb 61f
2:30 17 22 mph 1015.9mb 61f
2:24 17 24 mph 1015.9mb 61f
2:18 17 21 mph 1015.9mb 61f
2:12 15 18 mph 1016mb 61f
2:06 14 17 mph 1016.1mb 61f
2:00 15 20 mph 1016mb 60f
1:54 15 21 mph 1016mb 60f
1:48 15 20 mph 1016.1mb 60f
1:42 17 24 mph 1016mb 60f
1:36 18 24 mph 1016mb 61f
1:30 17 23 mph 1016.1mb 61f
1:24 21 24 mph 1016mb 60f
1:18 17 22 mph 1016mb 61f
1:12 18 23 mph 1016mb 60f
1:06 21 26 mph 1016mb 60f
1:00 20 25 mph 1016mb 60f
12:54 21 26 mph 1016.1mb 61f
12:48 20 28 mph 1016.2mb 61f
12:42 20 22 mph 1016.3mb 60f
12:36 18 22 mph 1016.3mb 60f
12:30 18 23 mph 1016.4mb 60f
12:24 17 23 mph 1016.6mb 60f
12:18 17 25 mph 1016.7mb 60f
12:12 18 25 mph 1016.6mb 60f
12:06 21 25 mph 1016.5mb 60f
12:00 18 24 mph 1016.6mb 60f
11:54 16 23 mph 1016.7mb 60f
11:48 16 22 mph 1016.5mb 60f
11:42 15 20 mph 1016.6mb 60f
11:36 15 20 mph 1016.7mb 60f
11:30 15 20 mph 1016.7mb 60f
11:24 14 16 mph 1016.9mb 60f
11:18 14 16 mph 1016.9mb 60f
11:12 16 23 mph 1016.7mb 60f
11:06 14 17 mph 1016.6mb 60f
11:00 11 16 mph 1016.8mb 60f
10:54 13 16 mph 1016.9mb 60f
10:48 10 13 mph 1016.9mb 60f
10:42 13 18 mph 1016.9mb 60f
10:36 10 13 mph 1016.9mb 60f
10:30 11 16 mph 1016.8mb 60f
10:24 14 17 mph 1016.7mb 60f
10:18 14 18 mph 1016.7mb 60f
10:12 13 17 mph 1016.6mb 60f
10:06 14 18 mph 1016.4mb 60f
10:00 13 16 mph 1016.3mb 60f
9:54 15 21 mph 1016.1mb 60f
9:48 15 22 mph 1016.2mb 60f
9:42 15 20 mph 1016.2mb 60f
9:36 14 17 mph 1016.2mb 60f
9:30 14 17 mph 1016.2mb 60f
9:24 13 21 mph 1016.2mb 60f
9:18 13 16 mph 1016.3mb 60f
9:12 14 18 mph 1016.2mb 60f
9:06 13 16 mph 1016.1mb 60f
9:00 11 15 mph 1016.1mb 60f
8:54 11 17 mph 1016.1mb 60f
8:48 13 16 mph 1016mb 60f
8:42 13 17 mph 1016mb 60f
8:36 13 17 mph 1016mb 59f
8:30 13 18 mph 1016mb 60f
8:24 14 16 mph 1016mb 60f
8:18 15 20 mph 1015.9mb 59f
8:12 13 18 mph 1015.9mb 60f
8:06 14 18 mph 1015.9mb 59f
8:00 11 14 mph 1015.9mb 59f
7:54 14 16 mph 1015.8mb 59f
7:48 14 17 mph 1015.7mb 59f
7:42 15 20 mph 1015.7mb 59f
7:36 14 18 mph 1015.6mb 59f
7:30 15 20 mph 1015.6mb 59f
7:24 16 23 mph 1015.5mb 59f
7:18 18 23 mph 1015.4mb 60f
7:12 14 20 mph 1015.5mb 59f
7:06 15 18 mph 1015.5mb 59f
7:00 15 21 mph 1015.5mb 59f
6:54 17 22 mph 1015.3mb 59f
6:48 14 20 mph 1015.4mb 59f
6:42 17 22 mph 1015.2mb 59f
6:36 17 21 mph 1015.1mb 59f
6:30 18 21 mph 1015mb 59f
6:24 16 21 mph 1015.1mb 59f
6:18 15 20 mph 1015.2mb 59f
6:12 13 17 mph 1015.3mb 59f
6:06 15 18 mph 1015.4mb 59f
6:00 14 17 mph 1015.4mb 59f
5:54 17 21 mph 1015.1mb 59f
5:48 16 20 mph 1015.1mb 59f
5:42 15 20 mph 1015.1mb 59f
5:36 14 16 mph 1015.1mb 60f
5:30 15 20 mph 1015mb 59f
5:24 13 18 mph 1015.2mb 59f
5:18 14 17 mph 1015.1mb 59f
5:12 11 18 mph 1015.2mb 59f
5:06 11 16 mph 1015.1mb 59f
5:00 14 18 mph 1015mb 59f
4:54 14 20 mph 1015mb 59f
4:48 14 17 mph 1014.9mb 59f
4:42 14 17 mph 1014.9mb 59f
4:36 11 15 mph 1015mb 59f
4:30 14 21 mph 1014.9mb 60f
4:24 15 18 mph 1014.9mb 59f
4:18 16 21 mph 1014.8mb 59f
4:12 14 16 mph 1014.9mb 59f
4:06 16 20 mph 1014.9mb 59f
4:00 14 17 mph 1014.9mb 60f
3:54 13 21 mph 1014.8mb 59f
3:48 14 20 mph 1014.8mb 59f
3:42 16 21 mph 1014.7mb 59f
3:36 17 22 mph 1014.6mb 59f
3:30 16 24 mph 1014.6mb 59f
3:24 17 23 mph 1014.6mb 59f
3:18 17 21 mph 1014.6mb 60f
3:12 17 21 mph 1014.6mb 59f
3:06 15 21 mph 1014.8mb 59f
3:00 13 16 mph 1014.9mb 59f
2:54 13 15 mph 1014.9mb 59f
2:48 13 17 mph 1014.9mb 59f
2:42 13 16 mph 1014.9mb 59f
2:36 15 21 mph 1014.8mb 59f
2:30 15 22 mph 1014.9mb 59f
2:24 17 22 mph 1014.9mb 59f
2:18 14 20 mph 1015mb 59f
2:12 16 23 mph 1015mb 59f
2:06 15 21 mph 1015.1mb 59f
2:00 11 14 mph 1015.2mb 59f
1:54 13 16 mph 1015.2mb 59f
1:48 14 17 mph 1015.3mb 59f
1:42 13 17 mph 1015.4mb 59f
1:36 13 16 mph 1015.4mb 59f
1:30 14 16 mph 1015.4mb 59f
1:24 14 17 mph 1015.3mb 59f
1:18 15 21 mph 1015.3mb 59f
1:12 16 20 mph 1015.3mb 59f
1:06 15 17 mph 1015.2mb 59f
1:00 14 17 mph 1015.4mb 59f
12:54 13 15 mph 1015.4mb 59f
12:48 13 16 mph 1015.5mb 59f
12:42 13 17 mph 1015.6mb 59f
12:36 14 17 mph 1015.5mb 59f
12:30 14 17 mph 1015.6mb 59f
12:24 11 13 mph 1015.7mb 59f
12:18 10 14 mph 1015.8mb 58f
12:12 11 14 mph 1015.8mb 58f
12:06 13 16 mph 1015.8mb 59f
12:00 13 16 mph 1015.8mb 58f
Ter 09/30 11:54 11 16 mph 1015.7mb 58f
11:48 13 18 mph 1015.7mb 58f
11:42 14 17 mph 1015.7mb 58f
11:36 14 17 mph 1015.7mb 58f
11:30 11 15 mph 1015.7mb -
11:24 13 18 mph 1015.6mb -
11:18 13 15 mph 1015.6mb 58f
11:12 13 15 mph 1015.6mb 58f
11:06 14 20 mph 1015.6mb 58f
11:00 14 18 mph 1015.6mb 58f
10:54 13 16 mph 1015.6mb 58f
10:48 13 17 mph 1015.6mb 58f
10:42 14 17 mph 1015.5mb 58f
10:36 11 15 mph 1015.6mb 58f
10:30 10 15 mph 1015.6mb 58f
10:24 11 15 mph 1015.6mb 58f
10:18  -  mph - 58f
10:12  -  mph - 58f
10:06  -  mph - 58f
10:00 16 22 mph 1015.4mb 58f
9:54 14 17 mph 1015.5mb 58f
9:48 14 18 mph 1015.3mb 58f
9:42 17 21 mph 1015.3mb 58f
9:36 14 20 mph 1015.3mb 58f
9:30 17 22 mph 1015.1mb 58f
9:24 15 20 mph 1015.2mb 58f
9:18 17 22 mph 1015.2mb 58f
9:12 17 24 mph 1015.2mb 58f
9:06 17 20 mph 1015.3mb 58f
9:00 16 20 mph 1015.5mb 58f
8:54 17 21 mph 1015.5mb 58f
8:48 18 22 mph 1015.5mb 59f
8:42 18 22 mph 1015.6mb 59f
8:36 17 22 mph 1015.6mb 58f
8:30 15 17 mph 1015.7mb 59f
8:24 14 17 mph 1015.6mb 59f
8:18 17 22 mph 1015.6mb 58f
8:12 16 23 mph 1015.6mb 59f
8:06 17 21 mph 1015.5mb 58f
8:00 18 23 mph 1015.4mb 58f
7:54 16 21 mph 1015.5mb 58f
7:48 20 25 mph 1015.2mb 58f
7:42 18 22 mph 1015.1mb 58f
7:36 18 23 mph 1015.1mb 59f
7:00 14 20 mph 1015.2mb 58f
6:54 15 21 mph 1015.1mb 58f
6:48 16 21 mph 1015.2mb 58f
6:42 14 17 mph 1015.3mb 58f
6:36 16 20 mph 1015.3mb 58f
6:30 13 16 mph 1015.4mb 58f
6:24 11 15 mph 1015.4mb 59f
6:18 11 16 mph 1015.4mb 58f
6:12 13 15 mph 1015.3mb 58f
6:06 14 17 mph 1015.3mb 58f
6:00 14 20 mph 1015.2mb 58f
5:54 10 14 mph 1015.2mb 59f
5:48 13 17 mph 1015.2mb 59f
5:42 14 17 mph 1015.1mb 59f
5:36 13 16 mph 1015.1mb 59f
5:30 11 17 mph 1015mb 59f
5:24 13 16 mph 1014.9mb 59f
5:18 14 20 mph 1014.9mb 59f
5:12 11 15 mph 1014.9mb 59f
5:06 15 17 mph 1014.8mb 59f
5:00 11 15 mph 1014.8mb 59f
4:54 10 15 mph 1014.9mb 59f
4:48 13 16 mph 1014.8mb 59f
4:42 8 13 mph 1014.9mb 59f
4:36 11 15 mph 1014.9mb 59f
4:30 13 17 mph 1014.9mb 59f
4:24 11 14 mph 1014.8mb 60f
4:18 11 15 mph 1014.7mb 59f
4:12 13 15 mph 1014.6mb 60f
4:06 13 15 mph 1014.6mb 60f
4:00 11 15 mph 1014.6mb 60f
3:54 11 16 mph 1014.6mb 60f
3:48 11 15 mph 1014.7mb 60f
3:42 11 14 mph 1014.7mb 60f
3:36 11 15 mph 1014.7mb 60f
3:30 10 14 mph 1014.9mb 60f
3:24 9 11 mph 1014.9mb 60f
3:18 11 15 mph 1014.8mb 60f
3:12 10 13 mph 1014.8mb 60f
3:06 13 15 mph 1014.7mb 60f
3:00 11 15 mph 1014.7mb 60f
2:54 10 14 mph 1014.7mb 60f
2:48 15 20 mph 1014.5mb 60f
2:42 15 18 mph 1014.5mb 60f
2:36 14 17 mph 1014.6mb 60f
2:30 14 17 mph 1014.6mb 60f
2:24 13 16 mph 1014.6mb 60f
2:18 14 20 mph 1014.6mb 60f
2:12 9 11 mph 1014.7mb 60f
2:06 11 14 mph 1014.7mb 60f
2:00 14 18 mph 1014.6mb 60f
1:54 15 18 mph 1014.7mb 60f
1:48 13 15 mph 1014.8mb 60f
1:42 15 17 mph 1014.9mb 60f
1:36 14 16 mph 1015mb 60f
1:30 13 16 mph 1015.1mb 60f
1:24 14 16 mph 1015.1mb 60f
1:18 13 15 mph 1015.2mb 60f
1:12 11 16 mph 1015.3mb 60f
1:06 14 17 mph 1015.4mb 60f
1:00 13 17 mph 1015.5mb 60f
12:54 13 15 mph 1015.6mb 60f
12:48 14 17 mph 1015.5mb 60f
12:42 15 17 mph 1015.6mb 60f
12:36 13 15 mph 1015.6mb 60f
12:30 11 14 mph 1015.6mb 60f
12:24 15 20 mph 1015.5mb 60f
12:18 13 16 mph 1015.6mb 60f
12:12 11 15 mph 1015.7mb 60f
12:06 14 16 mph 1015.7mb 60f
12:00 15 18 mph 1015.6mb 60f
11:54 15 18 mph 1015.6mb 60f
11:48 13 16 mph 1015.8mb 60f
11:42 14 17 mph 1015.8mb 60f
11:36 11 15 mph 1015.8mb 60f
11:30 14 18 mph 1015.8mb 60f
11:24 15 20 mph 1015.7mb 59f
11:18 14 16 mph 1015.8mb 60f
11:12 16 18 mph 1015.8mb 60f
11:06 11 16 mph 1015.9mb 60f
11:00 11 15 mph 1016mb 59f
10:54 11 15 mph 1016.1mb 59f
10:48 13 16 mph 1016.1mb 59f
10:42 13 15 mph 1016.1mb 59f
10:36 13 17 mph 1016.2mb 59f
10:30 11 15 mph 1016.2mb 59f
10:24 10 15 mph 1016.1mb 59f
10:18 11 14 mph 1016.1mb 59f
10:12 14 17 mph 1016.1mb 59f
10:06 11 14 mph 1016.2mb 59f
10:00 13 16 mph 1016.2mb 59f
9:54 10 14 mph 1016.3mb 59f
9:48 13 16 mph 1016.2mb 59f
9:42 13 17 mph 1016mb 60f
9:36 14 17 mph 1016.3mb 59f
9:30 14 16 mph 1016.3mb 60f
9:24 11 14 mph 1016.4mb 59f
9:18 13 16 mph 1016.3mb 59f
9:12 13 15 mph 1016.3mb 59f
9:06 13 17 mph 1016.1mb 59f
9:00 14 16 mph 1016.1mb 59f
8:54 11 15 mph 1016.1mb 59f
8:48 11 16 mph 1016mb 59f
8:42 14 18 mph 1015.9mb 59f
8:36 14 18 mph 1016mb 59f
8:30 13 15 mph 1016.1mb 59f
8:24 13 16 mph 1016.1mb 59f
8:18 13 15 mph 1016.1mb 59f
8:12 13 17 mph 1016.1mb 59f
8:06 11 14 mph 1016.2mb 59f
8:00 9 14 mph 1016.4mb 59f
7:54 11 15 mph 1016.3mb 59f
7:48 11 16 mph 1016mb 59f
7:42 11 14 mph 1016mb 59f
7:36 10 14 mph 1015.9mb 59f
7:30 10 15 mph 1015.9mb 59f
7:24 14 17 mph 1015.6mb 59f
7:18 15 18 mph 1015.4mb 60f
7:12 13 16 mph 1015.5mb 59f
7:06 14 16 mph 1015.5mb 59f
7:00 11 14 mph 1015.6mb 59f
6:54 13 16 mph 1015.6mb 59f
6:48 10 14 mph 1015.7mb 59f
6:42 10 14 mph 1015.8mb 59f
6:36 10 13 mph 1015.6mb 59f
6:30 13 15 mph 1015.5mb 59f
6:24 11 16 mph 1015.5mb 59f
6:18 14 17 mph 1015.3mb 59f
6:12 10 14 mph 1015.3mb 60f
6:06 11 13 mph 1015.2mb 59f
6:00 10 14 mph 1015.3mb 59f
5:54 14 17 mph 1015mb 59f
5:48 10 13 mph 1015.1mb 59f
5:42 9 13 mph 1015mb 59f
5:36 10 14 mph 1015.1mb 59f
5:30 7 9 mph 1015.2mb 59f
5:24 11 13 mph 1014.9mb 59f
5:18 9 13 mph 1015.1mb 59f
5:12 10 13 mph 1015.2mb 59f
5:06 11 15 mph 1015mb 59f
5:00 10 14 mph 1015mb 60f
4:54 13 16 mph 1014.8mb 60f
4:48 11 15 mph 1014.9mb 60f
4:42 10 15 mph 1014.9mb 60f
4:36 13 15 mph 1014.6mb 60f
4:30 14 17 mph 1014.4mb 60f
4:24 14 18 mph 1014.3mb 60f
4:18 11 16 mph 1014.6mb 60f
4:12 10 14 mph 1014.4mb 60f
4:06 14 17 mph 1014.3mb 59f
4:00 13 16 mph 1014.6mb 60f
3:54 11 15 mph 1014.5mb 60f
3:48 11 15 mph 1014.4mb 60f
3:42 11 14 mph 1014.5mb 60f
3:36 11 16 mph 1014.5mb 60f
3:30 13 15 mph 1014.6mb 60f
3:24 10 14 mph 1014.8mb 60f
3:18 10 14 mph 1014.7mb 60f
3:12 8 10 mph 1014.8mb 60f
3:06 6 9 mph 1015mb 60f
3:00 9 11 mph 1014.8mb 60f
2:54 10 14 mph 1014.8mb 60f
2:48 11 16 mph 1014.8mb 60f
2:42 10 15 mph 1014.8mb 60f
2:36 10 15 mph 1014.9mb 60f
2:30 10 14 mph 1015mb 60f
2:24 9 11 mph 1015mb 61f
2:18 11 14 mph 1015.1mb 61f
2:12 11 15 mph 1015.1mb 61f
2:06 10 13 mph 1015.3mb 61f
2:00 8 9 mph 1015.4mb 61f
1:54 8 11 mph 1015.4mb 61f
1:48 9 14 mph 1015.4mb 61f
1:42 9 11 mph 1015.4mb 61f
1:36 9 11 mph 1015.3mb 61f
1:30 10 14 mph 1015.2mb 61f
1:24 9 13 mph 1015.2mb 61f
1:18 11 15 mph 1015mb 61f
1:12 11 15 mph 1014.9mb 61f
1:06 13 16 mph 1014.6mb 61f
1:00 13 15 mph 1014.7mb 61f
12:54 10 13 mph 1014.8mb 61f
12:48 11 15 mph 1015mb 62f
12:42 10 13 mph 1015mb 62f
12:36 11 14 mph 1015mb 62f
12:30 9 11 mph 1015.2mb 62f
12:24 9 11 mph 1015.3mb 62f
12:18 8 10 mph 1015.3mb 62f
12:12 11 14 mph 1015.2mb 62f
12:06 9 11 mph 1015.1mb 62f
12:00 13 15 mph 1014.9mb 62f
Seg 09/29 11:54 13 14 mph 1015mb 62f
11:48 11 14 mph 1015.1mb 62f
11:42 10 13 mph 1015.3mb 62f
11:36 14 15 mph 1015.2mb 62f
11:30 11 15 mph - -
11:24 13 14 mph - -
11:18 10 13 mph 1015.3mb -
11:12 13 15 mph 1015.1mb -
11:06 13 16 mph 1015.1mb -
11:00 13 16 mph 1015.2mb 63f
10:54 11 14 mph 1015.2mb 63f
10:48 13 15 mph 1015.1mb 63f
10:42 13 15 mph 1014.9mb 63f
10:36 14 16 mph 1015mb 63f
10:30 13 16 mph 1015.1mb 63f
10:24 11 14 mph 1015.3mb 63f
10:18 10 13 mph 1015.2mb 63f
10:12 13 18 mph 1015mb 63f
10:06 10 14 mph 1015.1mb 63f
10:00 13 15 mph 1015mb 63f
9:54 14 16 mph 1014.9mb 63f
9:48 11 14 mph 1015.2mb -
9:42 9 11 mph 1015.3mb -
9:36 8 10 mph 1015mb -
9:30 9 14 mph 1015.1mb 64f
9:24 14 16 mph 1014.5mb 64f
9:18 15 20 mph - 64f
9:12 15 21 mph - 64f
9:06 16 21 mph - 65f
9:00 15 18 mph 1014.4mb 65f
8:54 15 18 mph 1014.3mb 65f
8:48 14 17 mph 1014.4mb 65f
8:42 15 17 mph 1014.5mb 65f
8:36 13 15 mph 1014.6mb 65f
8:30 14 17 mph 1014.4mb 65f
8:24 13 16 mph 1014.5mb 66f
8:18 13 16 mph 1014.5mb 66f
8:12 14 17 mph 1014.3mb 66f
8:06 15 20 mph 1014.1mb 66f
8:00 15 18 mph 1014.1mb 66f
7:54 13 16 mph 1014.4mb 66f
7:48 14 16 mph 1014.3mb 66f
7:42 14 16 mph 1014.1mb 66f
7:36 13 16 mph 1014.1mb 67f
7:30 14 18 mph 1014mb 67f
7:24 14 18 mph 1014.1mb 67f
7:18 14 16 mph 1013.9mb 67f
7:12 15 18 mph 1013.8mb 67f
7:06 16 18 mph 1013.7mb 67f
7:00 17 20 mph 1013.8mb 67f
6:54 13 16 mph 1013.7mb 68f
6:48 13 16 mph 1013.7mb 68f
6:42 3
mph
1013.8mb 69f
6:36  -  2 mph 1013.9mb 69f
6:30 2
mph
1014.1mb 69f
6:24 2
mph
1013.9mb 69f
6:18 2
mph
1013.7mb 69f
6:12 2
mph
1013.5mb 69f
6:06 2 3 mph 1013.5mb 69f
6:00 3
mph
1013.5mb 69f
5:54 2 3 mph 1013.6mb 69f
5:48 6 8 mph 1013.7mb 69f
5:42 10
mph
1013.9mb 69f
5:36 10
mph
1013.8mb 69f
5:30 7 8 mph 1013.7mb 69f
5:24 6 7 mph 1013.5mb 69f
5:18 8
mph
1013.4mb 69f
5:12 9 10 mph 1013.5mb 69f
5:06 11
mph
1013.4mb 69f
5:00 7 8 mph 1013.3mb 70f
4:54 7 8 mph 1013.3mb 69f
4:48 9 10 mph 1013.2mb 69f
4:42 8 10 mph 1013.3mb 69f
4:36 11 13 mph 1013.4mb 69f
4:30 10 11 mph 1013.3mb 69f
4:24 8 9 mph 1013.2mb 69f
4:18 8 10 mph 1013.2mb 69f
4:12 10 11 mph 1013.3mb 69f
4:06 10 11 mph 1013.3mb 69f
4:00 8 9 mph 1013.3mb 69f
3:54 5
mph
1013.2mb 70f
3:48 5
mph
1013.1mb 70f
3:42 3 5 mph 1013.1mb 70f
3:36 5 6 mph 1013.2mb 70f
3:30  -  mph 1013.4mb 70f
3:24  -  mph 1013.4mb 70f
3:18 6
mph
1013.3mb 70f
3:12 6
mph
1013.3mb 70f
3:06 5 6 mph 1013.3mb 70f
3:00 5 6 mph 1013.1mb 71f
2:54 5 6 mph 1013.3mb 71f
2:48 6
mph
1013.3mb 71f
2:42 5 6 mph 1013.2mb 71f
2:36 5 6 mph 1013.1mb 70f
2:30 5
mph
1013.2mb 70f
2:24 3 5 mph 1013.2mb 70f
2:18 5
mph
1013.2mb 71f
2:12 5
mph
1013.1mb 70f
2:06 6 7 mph 1013.7mb 69f
2:00 6
mph
1013.7mb 69f
1:54 5 6 mph 1013.6mb 69f
1:48 5 6 mph 1013.5mb 69f
1:42 6
mph
1013.6mb 69f
1:36 6
mph
1013.6mb 69f
1:30 6
mph
1013.8mb 69f
1:24 6
mph
1013.9mb 69f
1:18 5 6 mph 1013.9mb 69f
1:12 5
mph
1014mb 69f
1:06 6
mph
1014mb 69f
1:00 6 7 mph 1014.1mb 69f
12:54 7
mph
1014.2mb 69f
12:48 6 7 mph 1014.3mb 68f
12:42 6
mph
1014.3mb 68f
12:36 6
mph
1014.2mb 68f
12:30 6 7 mph 1014.3mb 68f
12:24 6
mph
1014.3mb 68f
12:18 6 7 mph 1014.3mb 68f
12:12 5
mph
1014.2mb 68f
12:06 5 6 mph 1014.2mb 68f
12:00 7
mph
1014.3mb 67f
11:54 6
mph
1014.3mb 68f
11:48 5 6 mph 1014.3mb 68f
11:42 6
mph
1014.3mb 68f
11:36 6 7 mph 1014.1mb 68f
11:30 8
mph
1014mb 68f
11:24 5 6 mph 1014.4mb 67f
11:18 3 5 mph 1014.4mb 67f
11:12 6
mph
1014.6mb 67f
11:06 6
mph
1014.6mb 67f
11:00 3 5 mph 1014.5mb 67f
10:54 3
mph
1014.6mb 67f
10:48 2
mph
1014.6mb 67f
10:42 2 5 mph 1014.6mb 67f
10:36 6
mph
1014.7mb 67f
10:30 7 8 mph 1014.7mb 67f
10:24 8
mph
1014.8mb 67f
10:18 7 8 mph 1014.8mb 67f
10:12 7 8 mph 1014.7mb 67f
10:06 7
mph
1014.5mb 67f
10:00 8
mph
1014.6mb 67f
9:54 8 9 mph 1014.7mb 67f
9:48 9
mph
1014.8mb 67f
9:42 8 9 mph 1014.8mb 67f
9:36 6 7 mph 1014.7mb 67f
9:30 6
mph
1014.6mb 67f
9:24 6 7 mph 1014.6mb 67f
9:18 8 9 mph 1014.7mb 67f
9:12 9 10 mph 1014.8mb 67f
9:06 7 8 mph 1014.6mb 67f
9:00 7 8 mph 1014.7mb 67f
8:54 7 9 mph 1014.7mb 67f
8:48 8 9 mph 1014.6mb 67f
8:42 7 8 mph 1014.7mb 66f
8:36 7 8 mph 1014.7mb 66f
8:30 7 9 mph 1014.7mb 66f
8:24 8 9 mph 1014.7mb 66f
8:18 8 10 mph 1014.8mb 66f
8:12 7 8 mph 1014.8mb 66f
8:06 8 9 mph 1014.8mb 66f
8:00 8 9 mph 1014.8mb 66f
7:54 9 11 mph 1014.9mb 66f
7:48 8 10 mph 1014.9mb 66f
7:42 6 8 mph 1014.8mb 66f
7:36 6 7 mph 1014.6mb 66f
7:30 7 8 mph 1014.6mb 66f
7:24 6 8 mph 1014.6mb 66f
7:18 7 9 mph 1014.5mb 66f
7:12 8 10 mph 1014.4mb 66f
7:06 8 10 mph 1014.4mb 66f
7:00 8 9 mph 1014.5mb 66f
6:54 7 9 mph 1014.4mb 65f
6:48 7 8 mph 1014.4mb 65f
6:42 7 8 mph 1014.3mb 66f
6:36 7 8 mph 1014.3mb 66f
6:30 8 10 mph 1014.2mb 66f
6:24 8 9 mph 1014.2mb 66f
6:18 8 10 mph 1014.2mb 66f
6:12 9 10 mph 1014.2mb 66f
6:06 9 10 mph 1014.2mb 66f
6:00 9 10 mph 1014.1mb 66f
5:54 8 10 mph 1014.2mb 66f
5:48 8 9 mph 1014.2mb 66f
5:42 7 9 mph 1014.2mb 66f
5:36 8 10 mph 1014.3mb 66f
5:30 9 10 mph 1014.3mb 66f
5:24 10 11 mph 1014.4mb 66f
5:18 10 11 mph 1014.4mb 66f
5:12 9 11 mph 1014.5mb 66f
5:06 9 10 mph 1014.5mb 66f
5:00 8 10 mph 1014.4mb 66f
4:54 9 10 mph 1014.4mb 66f
4:48 9 10 mph 1014.4mb 66f
4:42 8 10 mph 1014.4mb 66f
4:36 9 11 mph 1014.4mb 66f
4:30 11 13 mph 1014.5mb 66f
4:24 10 11 mph 1014.5mb 66f
4:18 10 13 mph 1014.5mb 66f
4:12 10 13 mph 1014.7mb 66f
4:06 10 13 mph 1014.7mb 66f
4:00 11 13 mph 1014.6mb 66f
3:54 10 13 mph 1014.6mb 66f
3:48 10 13 mph 1014.6mb 67f
3:42 10 11 mph 1014.6mb 67f
3:36 9 11 mph 1014.6mb 67f
3:30 9 11 mph 1014.6mb 67f
3:24 9 10 mph 1014.6mb 67f
3:18 8 10 mph 1014.7mb 67f
3:12 8 9 mph 1014.8mb 67f
3:06 8 9 mph 1014.8mb 66f
3:00 8 9 mph 1014.9mb 66f
2:54 8 10 mph 1014.9mb 66f
2:48 8 9 mph 1014.9mb 66f
2:42 8 9 mph 1015mb 66f
2:36 8 9 mph 1015mb 67f
2:30 7 9 mph 1015.1mb 67f
2:24 8 10 mph 1015.2mb 67f
2:18 8 10 mph 1015.2mb 67f
2:12 8 10 mph 1015.3mb 67f
2:06 7 9 mph 1015.3mb 67f
2:00 7 9 mph 1015.4mb 67f
1:54 8 9 mph 1015.4mb 67f
1:48 7 9 mph 1015.5mb 67f
1:42 8 9 mph 1015.5mb 67f
1:36 8 9 mph 1015.5mb 67f
1:30 7 10 mph 1015.6mb 67f
1:24 6 7 mph 1015.6mb 67f
1:18 5 6 mph 1015.5mb 67f
1:12 5 7 mph 1015.5mb 67f
1:06 6 7 mph 1015.5mb 67f
1:00 6 7 mph 1015.5mb 67f
12:54 6 7 mph 1015.5mb 67f
12:48 6 7 mph 1015.5mb 67f
12:36 8 10 mph 1015.5mb 67f
12:30 9 10 mph 1015.5mb 67f
12:24 8 10 mph 1015.5mb 67f
12:18 8 9 mph 1015.5mb 67f
12:12 8 10 mph 1015.5mb 67f
12:06 7 9 mph 1015.6mb 67f
12:00 8 10 mph 1015.7mb 68f
Dom 09/28 11:54 9 11 mph 1015.7mb 68f
11:48 9 10 mph 1015.7mb 68f
11:42 10 13 mph 1015.7mb 68f
11:36 10 13 mph 1015.8mb 68f
11:30 10 13 mph 1015.8mb 68f
11:24 11 13 mph 1015.8mb 68f
11:18 11 14 mph 1015.8mb 68f
11:12 11 15 mph 1015.9mb 68f
11:06 13 15 mph 1015.9mb 68f
11:00 14 16 mph 1016mb 68f
10:54 14 16 mph 1016mb 68f
10:48 14 17 mph 1016mb 68f
10:42 14 16 mph 1015.9mb 68f
10:36 15 16 mph 1015.9mb 68f
10:30 13 15 mph 1016mb 68f
10:24 11 13 mph 1016mb 68f
10:18 11 14 mph 1016mb 68f
10:12 11 14 mph 1016mb 68f
10:06 11 14 mph 1016.1mb 68f
10:00 10 14 mph 1016.2mb 68f
9:54 8 11 mph 1016.2mb 68f
9:48 10 13 mph 1016.2mb 68f
9:42 9 11 mph 1016.2mb 68f
9:36 11 14 mph 1016.3mb 68f
9:30 10 13 mph 1016.4mb 69f
9:24 10 13 mph 1016.4mb 69f
9:18 9 11 mph 1016.4mb 69f
9:12 8 10 mph 1016.3mb 69f
9:06 8 11 mph 1016.2mb 69f
9:00 8 9 mph 1016.3mb 69f
8:54 7 9 mph 1016.4mb 69f
8:48 7 8 mph 1016.4mb 69f
8:42 7 8 mph 1016.5mb 69f
8:36 7 9 mph 1016.5mb 69f
8:30 7 10 mph 1016.5mb 69f
8:24 9 11 mph 1016.6mb 70f
8:18 7 9 mph 1016.5mb 70f
8:12 8 10 mph 1016.4mb 70f
8:06 7 10 mph 1016.4mb 70f
8:00 8 11 mph 1016.3mb 70f
7:54 10 13 mph 1016.3mb 70f
7:48 11 14 mph 1016.2mb 70f
7:42 10 13 mph 1016.2mb 70f
7:36 13 15 mph 1016.2mb 70f
7:30 13 14 mph 1016.3mb 70f
7:24 13 15 mph 1016.3mb 71f
7:18 13 15 mph 1016.3mb 71f
7:12 13 16 mph 1016.3mb 71f
7:06 14 15 mph 1016.2mb 71f
7:00 11 14 mph 1016.3mb 71f
6:54 11 15 mph 1016.3mb 71f
6:48 10 14 mph 1016.3mb 72f
6:42 10 14 mph 1016.3mb 72f
6:36 11 15 mph 1016.2mb 72f
6:30 11 14 mph 1016.3mb 72f
6:24 11 15 mph 1016.3mb 72f
6:18 14 17 mph 1016.3mb 73f
6:12 14 17 mph 1016.3mb 73f
6:06 13 15 mph 1016.2mb 73f